Time;durP1;ratioP1;P1;durP2;ratioP2;P2;SDS_P1;SDS_P2;PMS_P1;PMS_P2;Temp;Humidity;BMP_temperature;BMP_pressure;BME280_temperature;BME280_humidity;BME280_pressure;Samples;Min_cycle;Max_cycle;Signal;HPM_P1;HPM_P2
2022/05/05 00:01:33;;;;;;;2.72;2.53;;;11.20;99.90;;;;;;5068973;28;20032;-80
2022/05/05 00:04:00;;;;;;;2.90;2.67;;;11.20;99.90;;;;;;5068268;28;20033;-81
2022/05/05 00:06:27;;;;;;;2.60;2.40;;;11.20;99.90;;;;;;5044058;28;20058;-81
2022/05/05 00:08:53;;;;;;;2.60;2.40;;;11.10;99.90;;;;;;5063251;28;20103;-82
2022/05/05 00:16:52;;;;;;;2.47;2.28;;;11.00;99.90;;;;;;5062846;28;20027;-80
2022/05/05 00:19:17;;;;;;;2.28;2.08;;;10.90;99.90;;;;;;5051502;28;20040;-80
2022/05/05 00:21:43;;;;;;;2.85;2.05;;;10.90;99.90;;;;;;5050290;28;20416;-80
2022/05/05 00:24:09;;;;;;;4.07;2.20;;;10.80;99.90;;;;;;5059775;28;20020;-81
2022/05/05 00:26:35;;;;;;;2.00;1.90;;;10.90;99.90;;;;;;5049361;28;20037;-80
2022/05/05 00:29:02;;;;;;;2.40;2.20;;;11.00;99.90;;;;;;5066452;28;20032;-81
2022/05/05 00:31:28;;;;;;;2.10;1.90;;;11.00;99.90;;;;;;5066612;28;20477;-81
2022/05/05 00:33:54;;;;;;;2.33;2.13;;;11.00;99.90;;;;;;5066392;28;20032;-81
2022/05/05 00:36:19;;;;;;;2.85;1.95;;;11.10;99.90;;;;;;5070729;28;20027;-81
2022/05/05 00:38:45;;;;;;;2.22;2.13;;;11.10;99.90;;;;;;5069298;28;20535;-81
2022/05/05 00:41:11;;;;;;;2.00;1.80;;;11.10;99.90;;;;;;5053521;28;20021;-80
2022/05/05 00:43:37;;;;;;;1.65;1.55;;;11.10;99.90;;;;;;5035410;28;20487;-80
2022/05/05 00:46:03;;;;;;;1.88;1.77;;;11.10;99.90;;;;;;5055071;28;20127;-80
2022/05/05 00:48:29;;;;;;;2.00;1.90;;;11.10;99.90;;;;;;5049205;28;20511;-80
2022/05/05 00:50:56;;;;;;;1.70;1.60;;;11.10;99.90;;;;;;5065547;28;20061;-80
2022/05/05 00:53:22;;;;;;;2.25;1.75;;;11.10;99.90;;;;;;5045896;28;20042;-80
2022/05/05 00:55:53;;;;;;;1.70;1.60;;;11.10;99.90;;;;;;5062291;28;20438;-81
2022/05/05 00:58:19;;;;;;;1.55;1.45;;;11.10;99.90;;;;;;5062707;28;20031;-81
2022/05/05 01:00:45;;;;;;;1.88;1.77;;;11.10;99.90;;;;;;5062762;28;20025;-80
2022/05/05 01:03:12;;;;;;;1.58;1.48;;;11.00;99.90;;;;;;5047516;28;20025;-81
2022/05/05 01:05:39;;;;;;;1.70;1.60;;;11.00;99.90;;;;;;5064386;28;20025;-81
2022/05/05 01:08:05;;;;;;;2.20;1.92;;;11.00;99.90;;;;;;5065380;28;20025;-81
2022/05/05 01:10:32;;;;;;;5.75;2.33;;;11.00;99.90;;;;;;5073341;28;20054;-80
2022/05/05 01:12:58;;;;;;;2.50;2.30;;;11.00;99.90;;;;;;5073094;28;20021;-81
2022/05/05 01:15:24;;;;;;;2.58;1.80;;;11.00;99.90;;;;;;5053084;28;20082;-81
2022/05/05 01:17:50;;;;;;;2.10;1.90;;;10.90;99.90;;;;;;5051668;28;20071;-81
2022/05/05 01:20:18;;;;;;;2.20;2.10;;;10.90;99.90;;;;;;5065380;28;20017;-81
2022/05/05 01:22:45;;;;;;;2.00;1.90;;;10.80;99.90;;;;;;5049503;28;20024;-79
2022/05/05 01:28:11;;;;;;;1.80;1.70;;;10.80;99.90;;;;;;5052803;28;20097;-80
2022/05/05 01:30:38;;;;;;;2.03;1.92;;;10.70;99.90;;;;;;5055398;28;20064;-80
2022/05/05 01:33:11;;;;;;;2.03;1.83;;;10.70;99.90;;;;;;5052823;28;20025;-81
2022/05/05 01:35:37;;;;;;;2.03;1.83;;;10.60;99.90;;;;;;5041938;28;20085;-80
2022/05/05 01:38:03;;;;;;;2.25;2.05;;;10.60;99.90;;;;;;5055266;28;20034;-81
2022/05/05 01:40:29;;;;;;;2.13;1.60;;;10.60;99.90;;;;;;5055072;28;20029;-80
2022/05/05 01:42:55;;;;;;;1.65;1.55;;;10.50;99.90;;;;;;5055342;28;20029;-81
2022/05/05 01:45:21;;;;;;;2.05;1.85;;;10.50;99.90;;;;;;5053093;28;20025;-80
2022/05/05 01:47:46;;;;;;;2.00;1.90;;;10.40;99.90;;;;;;5054776;28;20033;-81
2022/05/05 01:50:12;;;;;;;1.67;1.58;;;10.30;99.90;;;;;;5055401;28;20034;-80
2022/05/05 01:52:38;;;;;;;1.98;1.70;;;10.30;99.90;;;;;;5057152;28;20041;-80
2022/05/05 01:55:04;;;;;;;1.95;1.85;;;10.30;99.90;;;;;;5073074;28;20036;-81
2022/05/05 01:57:30;;;;;;;1.88;1.77;;;10.30;99.90;;;;;;5049866;28;20040;-81
2022/05/05 01:59:56;;;;;;;1.98;1.88;;;10.30;99.90;;;;;;5065767;28;20017;-80
2022/05/05 02:02:22;;;;;;;2.72;1.90;;;10.20;99.90;;;;;;5066528;28;20126;-80
2022/05/05 02:04:47;;;;;;;1.73;1.63;;;10.20;99.90;;;;;;5067237;28;20474;-80
2022/05/05 02:07:13;;;;;;;1.98;1.80;;;10.10;99.90;;;;;;5067202;28;20056;-81
2022/05/05 02:09:39;;;;;;;2.38;2.03;;;10.10;99.90;;;;;;5046837;28;20211;-80
2022/05/05 02:12:05;;;;;;;2.90;1.92;;;10.10;99.90;;;;;;5047627;28;20104;-80
2022/05/05 02:14:31;;;;;;;2.22;2.13;;;10.00;99.90;;;;;;5048857;28;20092;-80
2022/05/05 02:16:57;;;;;;;2.00;1.90;;;10.00;99.90;;;;;;5066492;28;20070;-81
2022/05/05 02:19:23;;;;;;;1.92;1.83;;;10.00;99.90;;;;;;5064365;28;20027;-81
2022/05/05 02:21:48;;;;;;;1.90;1.80;;;10.00;99.90;;;;;;5051260;28;20005;-82
2022/05/05 02:24:14;;;;;;;2.17;2.03;;;9.90;99.90;;;;;;5059028;28;20128;-80
2022/05/05 02:26:41;;;;;;;1.63;1.52;;;9.90;99.90;;;;;;5067553;28;20091;-81
2022/05/05 02:29:06;;;;;;;1.80;1.70;;;9.90;99.90;;;;;;5068629;28;20458;-80
2022/05/05 02:31:32;;;;;;;2.00;1.80;;;9.90;99.90;;;;;;5051311;28;20051;-80
2022/05/05 02:33:58;;;;;;;2.60;2.40;;;9.90;99.90;;;;;;5045993;28;20022;-81
2022/05/05 02:39:07;;;;;;;2.50;2.10;;;9.80;99.90;;;;;;5042618;28;20033;-81
2022/05/05 02:41:33;;;;;;;2.10;1.90;;;9.80;99.90;;;;;;5062001;28;20477;-81
2022/05/05 02:43:59;;;;;;;2.33;2.10;;;9.80;99.90;;;;;;5063132;28;20089;-81
2022/05/05 02:46:25;;;;;;;3.28;2.97;;;9.80;99.90;;;;;;5064250;28;20393;-81
2022/05/05 02:48:50;;;;;;;2.10;2.00;;;9.80;99.90;;;;;;5046018;28;20035;-80
2022/05/05 02:51:17;;;;;;;2.20;2.08;;;9.80;99.90;;;;;;5050079;28;20061;-80
2022/05/05 02:56:27;;;;;;;1.85;1.75;;;9.80;99.90;;;;;;5073205;28;20107;-80
2022/05/05 02:58:53;;;;;;;2.70;1.75;;;9.80;99.90;;;;;;5051131;28;20037;-81
2022/05/05 03:01:19;;;;;;;3.03;2.35;;;9.80;99.90;;;;;;5058678;28;20029;-80
2022/05/05 03:03:45;;;;;;;2.22;2.00;;;9.80;99.90;;;;;;5030598;28;20170;-81
2022/05/05 03:06:10;;;;;;;2.20;2.00;;;9.90;99.90;;;;;;5051258;28;20040;-80
2022/05/05 03:08:36;;;;;;;2.92;2.00;;;9.90;99.90;;;;;;5048428;28;20113;-82
2022/05/05 03:11:02;;;;;;;2.50;2.30;;;10.00;99.90;;;;;;5033240;28;20033;-81
2022/05/05 03:13:28;;;;;;;2.90;2.60;;;10.00;99.90;;;;;;5064541;28;20005;-82
2022/05/05 03:15:53;;;;;;;1.98;1.88;;;10.00;99.90;;;;;;5068579;28;20021;-81
2022/05/05 03:18:26;;;;;;;2.60;1.98;;;10.00;99.90;;;;;;5058364;28;20037;-80
2022/05/05 03:20:51;;;;;;;2.40;2.10;;;10.00;99.90;;;;;;5038899;28;20081;-80
2022/05/05 03:23:17;;;;;;;2.45;2.17;;;10.00;99.90;;;;;;5063764;28;20021;-81
2022/05/05 03:25:43;;;;;;;2.13;1.98;;;10.00;99.90;;;;;;5065160;28;20041;-80
2022/05/05 03:28:09;;;;;;;2.22;2.03;;;10.00;99.90;;;;;;5056198;28;20030;-80
2022/05/05 03:30:35;;;;;;;1.95;1.75;;;10.00;99.90;;;;;;5042998;28;20112;-80
2022/05/05 03:33:00;;;;;;;2.22;2.03;;;10.10;99.90;;;;;;5054373;28;20036;-81
2022/05/05 03:35:26;;;;;;;2.83;1.80;;;10.10;99.90;;;;;;5063799;28;20017;-80
2022/05/05 03:37:52;;;;;;;1.88;1.77;;;10.10;99.90;;;;;;5043379;28;20033;-81
2022/05/05 03:40:18;;;;;;;1.77;1.67;;;10.10;99.90;;;;;;5062108;28;20025;-81
2022/05/05 03:42:44;;;;;;;1.60;1.50;;;10.10;99.90;;;;;;5043570;28;20067;-80
2022/05/05 03:45:09;;;;;;;2.10;1.90;;;10.20;99.90;;;;;;5062865;28;20085;-79
2022/05/05 03:47:35;;;;;;;1.70;1.60;;;10.20;99.90;;;;;;5059707;28;20040;-80
2022/05/05 03:50:01;;;;;;;2.10;1.90;;;10.20;99.90;;;;;;5042454;28;20031;-80
2022/05/05 03:52:26;;;;;;;2.00;1.80;;;10.20;99.90;;;;;;5055104;28;20037;-79
2022/05/05 03:54:52;;;;;;;1.90;1.80;;;10.20;99.90;;;;;;5040692;28;20033;-80
2022/05/05 03:57:18;;;;;;;1.52;1.23;;;10.30;99.90;;;;;;5044276;28;20029;-80
2022/05/05 03:59:44;;;;;;;1.60;1.50;;;10.40;99.90;;;;;;5043506;28;20021;-80
2022/05/05 04:02:09;;;;;;;2.08;1.88;;;10.40;99.90;;;;;;5044266;28;20022;-80
2022/05/05 04:04:35;;;;;;;1.58;1.48;;;10.40;99.90;;;;;;5042692;28;20124;-81
2022/05/05 04:07:01;;;;;;;1.38;1.35;;;10.40;99.90;;;;;;5043830;28;20041;-80
2022/05/05 04:09:26;;;;;;;1.52;1.42;;;10.30;99.90;;;;;;5043494;28;20025;-80
2022/05/05 04:11:55;;;;;;;2.35;2.15;;;10.30;99.90;;;;;;5026117;28;20493;-80
2022/05/05 04:14:21;;;;;;;1.92;1.83;;;10.30;99.90;;;;;;5025697;28;20065;-79
2022/05/05 04:16:47;;;;;;;2.28;2.08;;;10.20;99.90;;;;;;5042582;28;20025;-80
2022/05/05 04:19:14;;;;;;;2.58;2.38;;;10.20;99.90;;;;;;5024421;28;20045;-81
2022/05/05 04:21:39;;;;;;;3.33;2.40;;;10.20;99.90;;;;;;5042486;28;20022;-79
2022/05/05 04:24:06;;;;;;;3.05;2.75;;;10.20;99.90;;;;;;5051906;28;20052;-79
2022/05/05 04:26:32;;;;;;;2.40;2.10;;;10.30;99.90;;;;;;5026514;28;20041;-80
2022/05/05 04:28:58;;;;;;;2.33;2.13;;;10.30;99.90;;;;;;5043635;28;20029;-80
2022/05/05 04:31:28;;;;;;;1.77;1.63;;;10.50;99.90;;;;;;5043466;28;20036;-80
2022/05/05 04:33:57;;;;;;;2.00;1.90;;;10.60;99.90;;;;;;5032476;28;20040;-82
2022/05/05 04:36:22;;;;;;;2.85;2.28;;;10.80;99.90;;;;;;5046528;28;20111;-80
2022/05/05 04:38:48;;;;;;;3.40;2.40;;;10.90;99.90;;;;;;5042669;28;20041;-80
2022/05/05 04:41:14;;;;;;;2.45;2.25;;;10.90;99.90;;;;;;5045246;28;20021;-81
2022/05/05 04:43:40;;;;;;;2.65;2.35;;;11.00;99.90;;;;;;5047283;28;20034;-81
2022/05/05 04:46:06;;;;;;;2.22;2.05;;;11.00;99.90;;;;;;5043253;28;20072;-80
2022/05/05 04:48:31;;;;;;;1.88;1.77;;;11.10;99.90;;;;;;5043016;28;20442;-80
2022/05/05 04:50:57;;;;;;;2.35;2.13;;;11.20;99.90;;;;;;5065917;22;20060;-82
2022/05/05 04:53:23;;;;;;;3.97;2.03;;;11.20;99.90;;;;;;5061772;28;20029;-83
2022/05/05 04:55:48;;;;;;;2.05;1.85;;;11.30;99.90;;;;;;5068624;28;20028;-83
2022/05/05 04:58:14;;;;;;;1.77;1.67;;;11.40;99.90;;;;;;5059572;28;20074;-82
2022/05/05 05:00:45;;;;;;;2.38;1.83;;;11.50;99.90;;;;;;5045602;28;20021;-84
2022/05/05 05:03:32;;;;;;;2.25;1.80;;;11.60;99.90;;;;;;5064425;28;20017;-81
2022/05/05 05:05:56;;;;;;;2.33;2.00;;;11.70;99.90;;;;;;5063546;28;20032;-83
2022/05/05 05:08:22;;;;;;;2.53;2.33;;;11.80;99.90;;;;;;5064928;28;20487;-82
2022/05/05 05:10:47;;;;;;;3.17;2.35;;;11.90;99.90;;;;;;5067529;28;20103;-83
2022/05/05 05:13:13;;;;;;;3.03;2.10;;;11.90;99.90;;;;;;5082754;28;20033;-83
2022/05/05 05:15:39;;;;;;;3.30;2.55;;;11.90;99.90;;;;;;5068456;28;20036;-82
2022/05/05 05:18:04;;;;;;;2.15;1.98;;;11.90;99.90;;;;;;5064780;28;20093;-83
2022/05/05 05:20:30;;;;;;;2.15;1.80;;;11.80;99.90;;;;;;5082227;28;20059;-83
2022/05/05 05:22:56;;;;;;;2.33;2.05;;;11.80;99.90;;;;;;5069533;28;20021;-83
2022/05/05 05:25:21;;;;;;;1.98;1.85;;;11.70;99.90;;;;;;5071398;28;20119;-84
2022/05/05 05:27:47;;;;;;;2.58;1.90;;;11.70;99.90;;;;;;5085578;28;20025;-82
2022/05/05 05:30:13;;;;;;;2.00;1.90;;;11.60;99.90;;;;;;5070860;28;20056;-82
2022/05/05 05:32:39;;;;;;;2.33;1.90;;;11.60;99.90;;;;;;5069714;28;20069;-83
2022/05/05 05:35:05;;;;;;;2.75;2.55;;;11.70;99.90;;;;;;5083460;28;20028;-82
2022/05/05 05:37:31;;;;;;;2.08;1.98;;;11.90;99.90;;;;;;5064456;28;20025;-83
2022/05/05 05:39:57;;;;;;;3.80;2.40;;;12.20;99.90;;;;;;5064560;28;20035;-82
2022/05/05 05:42:22;;;;;;;3.30;2.05;;;12.50;99.90;;;;;;5064102;28;20043;-83
2022/05/05 05:44:48;;;;;;;2.08;1.88;;;12.70;99.90;;;;;;5074384;28;20028;-82
2022/05/05 05:47:14;;;;;;;3.08;2.55;;;12.90;99.90;;;;;;5082007;28;20020;-83
2022/05/05 05:49:39;;;;;;;2.53;2.33;;;12.90;99.90;;;;;;5087614;28;20027;-82
2022/05/05 05:52:05;;;;;;;2.00;1.80;;;13.00;99.90;;;;;;5079802;28;20029;-81
2022/05/05 05:54:31;;;;;;;1.80;1.70;;;13.10;99.90;;;;;;5069149;28;20045;-82
2022/05/05 05:56:57;;;;;;;1.90;1.80;;;13.30;99.90;;;;;;5064706;28;20077;-82
2022/05/05 05:59:23;;;;;;;1.67;1.58;;;13.40;99.30;;;;;;5041909;28;20025;-83
2022/05/05 06:04:33;;;;;;;0.90;0.90;;;15.80;99.90;;;;;;5070227;28;20140;-82
2022/05/05 06:07:00;;;;;;;1.17;1.10;;;19.80;91.80;;;;;;5064322;28;20021;-83
2022/05/05 06:09:26;;;;;;;1.40;1.30;;;23.10;78.00;;;;;;5066589;28;20029;-82
2022/05/05 06:11:52;;;;;;;1.20;1.10;;;24.30;65.60;;;;;;5086282;28;20036;-84
2022/05/05 06:14:18;;;;;;;2.80;2.60;;;25.00;60.40;;;;;;5091473;28;20035;-84
2022/05/05 06:16:44;;;;;;;4.35;3.42;;;26.30;54.90;;;;;;5083875;28;20028;-81
2022/05/05 06:19:28;;;;;;;5.63;2.60;;;25.00;52.70;;;;;;5067575;28;20025;-82
2022/05/05 06:21:53;;;;;;;3.47;2.60;;;24.50;54.60;;;;;;5064871;28;20031;-83
2022/05/05 06:24:19;;;;;;;5.82;3.55;;;23.60;54.90;;;;;;5066791;28;20041;-84
2022/05/05 06:26:46;;;;;;;3.33;2.90;;;22.60;56.40;;;;;;5065933;28;20024;-83
2022/05/05 06:29:24;;;;;;;3.72;3.42;;;22.20;59.10;;;;;;5057385;28;20032;-85
2022/05/05 06:31:50;;;;;;;4.72;4.32;;;22.10;58.60;;;;;;5050057;28;20036;-83
2022/05/05 06:34:16;;;;;;;4.15;3.78;;;22.60;57.50;;;;;;5057305;28;20032;-82
2022/05/05 06:36:42;;;;;;;5.35;4.45;;;23.80;57.40;;;;;;5061718;28;20080;-84
2022/05/05 06:39:08;;;;;;;3.00;2.80;;;25.10;53.50;;;;;;5061709;28;20060;-83
2022/05/05 06:41:34;;;;;;;3.60;2.20;;;26.40;52.30;;;;;;5067675;28;20028;-84
2022/05/05 06:44:00;;;;;;;3.38;2.70;;;26.60;49.90;;;;;;5081358;28;20021;-82
2022/05/05 06:46:28;;;;;;;3.33;3.03;;;25.00;50.40;;;;;;5062064;28;20020;-84
2022/05/05 06:48:54;;;;;;;3.13;2.35;;;24.20;52.70;;;;;;5057692;28;20021;-84
2022/05/05 06:51:20;;;;;;;2.83;2.58;;;23.60;53.40;;;;;;5061376;28;20081;-85
2022/05/05 06:53:46;;;;;;;2.22;2.10;;;22.20;55.60;;;;;;5070286;28;20032;-83
2022/05/05 06:56:12;;;;;;;1.95;1.80;;;21.60;57.70;;;;;;5068896;28;20043;-84
2022/05/05 06:58:37;;;;;;;2.67;2.28;;;21.00;59.20;;;;;;5060006;28;20047;-82
2022/05/05 07:05:22;;;;;;;4.25;2.95;;;19.20;63.20;;;;;;5060354;28;20044;-83
2022/05/05 07:06:33;;;;;;;3.35;3.05;;;18.20;66.60;;;;;;5061049;28;20121;-82
2022/05/05 07:11:43;;;;;;;3.42;2.65;;;17.40;70.20;;;;;;5068026;28;20058;-83
2022/05/05 07:14:09;;;;;;;4.55;4.10;;;17.10;71.60;;;;;;5065076;28;20029;-83
2022/05/05 07:16:35;;;;;;;4.75;3.67;;;16.60;73.40;;;;;;5043627;28;20047;-82
2022/05/05 07:19:01;;;;;;;6.00;3.67;;;16.10;75.90;;;;;;5059300;28;20477;-82
2022/05/05 07:21:27;;;;;;;3.28;2.78;;;15.80;78.20;;;;;;5057622;28;20097;-82
2022/05/05 07:23:53;;;;;;;4.72;3.63;;;15.60;79.70;;;;;;5062611;28;20104;-80
2022/05/05 07:26:18;;;;;;;4.57;3.72;;;15.60;81.20;;;;;;5079961;28;20028;-84
2022/05/05 07:28:44;;;;;;;7.07;5.78;;;15.50;82.40;;;;;;5077641;28;20025;-83
2022/05/05 07:31:10;;;;;;;6.68;4.57;;;15.50;81.30;;;;;;5046524;28;20029;-83
2022/05/05 07:33:36;;;;;;;5.55;4.88;;;15.40;81.90;;;;;;5055796;28;20049;-84
2022/05/05 07:36:02;;;;;;;4.50;3.60;;;15.50;82.50;;;;;;5052157;28;20029;-85
2022/05/05 07:38:28;;;;;;;3.22;2.90;;;15.70;82.90;;;;;;5065456;28;20396;-85
2022/05/05 07:40:53;;;;;;;2.78;2.53;;;16.20;83.10;;;;;;5067715;28;20069;-86
2022/05/05 07:43:20;;;;;;;3.83;2.38;;;16.80;81.00;;;;;;5060731;28;20020;-84
2022/05/05 07:45:45;;;;;;;2.67;2.45;;;17.30;79.20;;;;;;5052112;28;20021;-85
2022/05/05 07:48:11;;;;;;;3.90;3.30;;;17.60;76.90;;;;;;5067879;28;20025;-85
2022/05/05 07:50:37;;;;;;;6.80;4.65;;;17.90;75.50;;;;;;5086066;28;20024;-83
2022/05/05 07:53:03;;;;;;;6.03;4.28;;;18.10;73.40;;;;;;5053404;28;20036;-84
2022/05/05 07:55:29;;;;;;;5.78;4.50;;;18.30;72.60;;;;;;5064578;28;20094;-84
2022/05/05 07:57:55;;;;;;;5.70;4.85;;;18.40;72.00;;;;;;5043021;28;20033;-83
2022/05/05 08:00:21;;;;;;;4.97;3.70;;;18.40;70.70;;;;;;5070416;28;20107;-82
2022/05/05 08:02:47;;;;;;;5.00;4.50;;;18.40;71.50;;;;;;5063110;28;20028;-84
2022/05/05 08:05:13;;;;;;;4.95;4.30;;;18.60;70.90;;;;;;5039710;28;20110;-85
2022/05/05 08:07:48;;;;;;;4.72;3.97;;;18.60;70.80;;;;;;5053552;28;20030;-86
2022/05/05 08:10:14;;;;;;;3.83;3.30;;;18.70;70.80;;;;;;5041204;28;20057;-84
2022/05/05 08:12:40;;;;;;;5.93;3.85;;;18.90;70.80;;;;;;5061023;28;20024;-84
2022/05/05 08:15:07;;;;;;;3.70;3.30;;;19.20;69.30;;;;;;5070912;28;20098;-85
2022/05/05 08:17:33;;;;;;;3.58;3.25;;;19.50;68.60;;;;;;5042938;28;20033;-84
2022/05/05 08:20:00;;;;;;;3.30;3.00;;;19.80;67.60;;;;;;5076102;28;20469;-83
2022/05/05 08:22:25;;;;;;;2.67;2.47;;;20.10;67.20;;;;;;5059232;28;20291;-84
2022/05/05 08:30:20;;;;;;;8.82;6.63;;;20.10;66.10;;;;;;5078644;28;20047;-84
2022/05/05 08:32:45;;;;;;;7.55;6.38;;;19.80;65.40;;;;;;5073785;28;20064;-83
2022/05/05 08:35:11;;;;;;;6.53;4.80;;;19.40;65.90;;;;;;5046767;28;20029;-82
2022/05/05 08:37:37;;;;;;;10.63;7.40;;;19.10;67.90;;;;;;5065899;28;20028;-83
2022/05/05 08:40:05;;;;;;;7.05;5.40;;;18.90;67.70;;;;;;5055276;28;20040;-83
2022/05/05 08:42:31;;;;;;;7.53;5.28;;;18.80;68.70;;;;;;5044388;28;20028;-83
2022/05/05 08:45:00;;;;;;;3.85;3.55;;;18.90;69.00;;;;;;5083073;28;20025;-85
2022/05/05 08:47:30;;;;;;;6.63;5.80;;;19.30;69.00;;;;;;5077167;28;20373;-84
2022/05/05 08:49:59;;;;;;;6.38;5.20;;;19.50;66.90;;;;;;5061258;28;20032;-83
2022/05/05 08:52:30;;;;;;;5.10;4.60;;;19.20;67.10;;;;;;5070131;28;20045;-83
2022/05/05 08:54:56;;;;;;;9.98;5.60;;;19.10;67.50;;;;;;5075493;28;20056;-83
2022/05/05 08:57:23;;;;;;;10.48;7.18;;;19.30;67.10;;;;;;5061382;28;20535;-82
2022/05/05 08:59:57;;;;;;;6.78;5.10;;;19.40;65.90;;;;;;5062749;28;20032;-84
2022/05/05 09:02:23;;;;;;;4.45;4.05;;;19.40;66.10;;;;;;5064560;28;20029;-84
2022/05/05 09:04:49;;;;;;;4.35;3.88;;;19.50;66.40;;;;;;5065383;28;20044;-85
2022/05/05 09:07:15;;;;;;;4.57;3.72;;;19.90;65.60;;;;;;5046946;28;20036;-84
2022/05/05 09:09:41;;;;;;;6.38;5.28;;;20.00;64.90;;;;;;5071776;28;20394;-84
2022/05/05 09:12:14;;;;;;;5.88;4.40;;;20.10;63.50;;;;;;5059967;28;20037;-86
2022/05/05 09:14:47;;;;;;;3.63;2.95;;;20.20;63.90;;;;;;5064356;28;20041;-85
2022/05/05 09:17:21;;;;;;;2.70;2.28;;;20.40;64.20;;;;;;5066119;28;20028;-85
2022/05/05 09:19:52;;;;;;;7.15;4.35;;;20.70;63.30;;;;;;5085305;28;20088;-84
2022/05/05 09:22:23;;;;;;;6.33;4.93;;;20.80;61.60;;;;;;5059033;28;20048;-85
2022/05/05 09:24:57;;;;;;;6.20;5.60;;;20.90;61.00;;;;;;5046263;28;20025;-86
2022/05/05 09:27:34;;;;;;;5.47;3.90;;;20.60;59.40;;;;;;5028527;28;20317;-86
2022/05/05 09:30:14;;;;;;;5.53;5.03;;;20.60;60.30;;;;;;5085599;28;20104;-85
2022/05/05 09:32:42;;;;;;;8.90;4.32;;;20.50;59.40;;;;;;5067696;28;20018;-86
2022/05/05 09:35:11;;;;;;;4.55;3.88;;;20.60;59.40;;;;;;5049434;28;20024;-86
2022/05/05 09:40:37;;;;;;;5.95;4.43;;;20.60;59.00;;;;;;5068094;28;20052;-86
2022/05/05 09:43:03;;;;;;;4.03;3.60;;;20.90;58.80;;;;;;5066449;28;20427;-85
2022/05/05 09:45:32;;;;;;;2.85;2.33;;;21.30;59.00;;;;;;5064148;28;20111;-84
2022/05/05 09:48:01;;;;;;;2.65;2.45;;;21.70;58.90;;;;;;5062344;28;20025;-84
2022/05/05 09:50:30;;;;;;;6.38;5.53;;;22.20;58.00;;;;;;5081228;28;20056;-85
2022/05/05 09:58:38;;;;;;;3.33;3.03;;;22.10;56.00;;;;;;5060662;28;20488;-85
2022/05/05 10:01:10;;;;;;;6.05;4.53;;;21.70;55.90;;;;;;5052007;28;20111;-85
2022/05/05 10:04:00;;;;;;;2.67;2.47;;;21.70;56.40;;;;;;5076248;28;20041;-85
2022/05/05 10:06:43;;;;;;;5.38;4.50;;;21.80;56.90;;;;;;5066155;28;20028;-85
2022/05/05 10:09:23;;;;;;;2.92;2.70;;;21.60;55.90;;;;;;5074870;28;20055;-85
2022/05/05 10:11:53;;;;;;;4.55;2.97;;;21.70;56.90;;;;;;5056886;28;20033;-84
2022/05/05 10:14:24;;;;;;;3.45;2.55;;;21.90;56.00;;;;;;5065543;28;20029;-84
2022/05/05 10:16:51;;;;;;;3.28;2.55;;;22.30;55.30;;;;;;5065425;28;20051;-85
2022/05/05 10:19:17;;;;;;;4.60;3.13;;;22.60;54.60;;;;;;5056501;28;20440;-84
2022/05/05 10:22:11;;;;;;;1.95;1.85;;;22.80;53.40;;;;;;5075451;28;20046;-86
2022/05/05 10:25:01;;;;;;;1.98;1.88;;;22.90;53.20;;;;;;5068905;28;20052;-84
2022/05/05 10:27:27;;;;;;;1.60;1.50;;;23.10;52.40;;;;;;5064893;28;20054;-86
2022/05/05 10:29:53;;;;;;;1.70;1.60;;;23.00;52.00;;;;;;5065408;28;20489;-85
2022/05/05 10:32:26;;;;;;;1.70;1.60;;;22.70;52.40;;;;;;5063799;28;20515;-83
2022/05/05 10:35:20;;;;;;;2.15;1.88;;;22.80;52.70;;;;;;5080644;28;20017;-83
2022/05/05 10:37:46;;;;;;;2.40;2.20;;;23.30;51.70;;;;;;5041718;28;20037;-86
2022/05/05 10:40:12;;;;;;;2.70;2.50;;;23.80;49.80;;;;;;5061143;28;20036;-84
2022/05/05 10:42:44;;;;;;;2.42;2.17;;;24.10;48.80;;;;;;5046947;28;20516;-84
2022/05/05 10:45:12;;;;;;;2.55;2.17;;;24.30;48.10;;;;;;5045932;28;20029;-85
2022/05/05 10:48:06;;;;;;;4.60;3.28;;;24.30;48.30;;;;;;5082202;28;20020;-84
2022/05/05 10:51:04;;;;;;;4.53;4.00;;;24.40;47.80;;;;;;5077971;28;20114;-84
2022/05/05 10:54:44;;;;;;;3.42;3.13;;;23.20;50.00;;;;;;5030672;28;20125;-85
2022/05/05 10:57:25;;;;;;;4.10;3.72;;;22.10;52.30;;;;;;4976465;28;20107;-85
2022/05/05 11:00:11;;;;;;;3.78;3.47;;;21.40;54.20;;;;;;4965458;28;20069;-86
2022/05/05 11:03:01;;;;;;;4.95;4.40;;;20.90;55.10;;;;;;5059112;28;20037;-85
2022/05/05 11:05:45;;;;;;;5.40;3.42;;;20.90;55.60;;;;;;5064765;28;20044;-85
2022/05/05 11:08:31;;;;;;;3.08;2.88;;;21.30;55.60;;;;;;5060359;28;20012;-86
2022/05/05 11:13:43;;;;;;;3.50;3.20;;;21.40;53.80;;;;;;5071417;28;20090;-84
2022/05/05 11:22:28;;;;;;;5.15;3.28;;;20.80;54.70;;;;;;5080064;28;20043;-85
2022/05/05 11:24:54;;;;;;;4.72;3.55;;;20.60;55.50;;;;;;5063722;28;20036;-85
2022/05/05 11:27:25;;;;;;;4.68;2.92;;;20.70;56.20;;;;;;5082386;28;20033;-85
2022/05/05 11:29:56;;;;;;;5.53;3.53;;;20.70;56.90;;;;;;5054855;28;20058;-85
2022/05/05 11:32:31;;;;;;;7.20;3.65;;;20.60;56.90;;;;;;5076587;28;20357;-85
2022/05/05 11:34:57;;;;;;;3.92;2.80;;;20.70;56.90;;;;;;5065401;28;20119;-86
2022/05/05 11:37:26;;;;;;;3.58;3.15;;;21.20;56.50;;;;;;5063796;28;20029;-86
2022/05/05 11:39:52;;;;;;;3.65;2.88;;;21.60;55.30;;;;;;5065665;28;20025;-85
2022/05/05 11:42:18;;;;;;;4.53;4.13;;;22.20;54.00;;;;;;5064858;28;20029;-87
2022/05/05 11:44:53;;;;;;;4.93;4.38;;;22.60;52.70;;;;;;5046963;28;20021;-86
2022/05/05 11:47:21;;;;;;;5.65;5.10;;;22.70;52.60;;;;;;5063740;28;20032;-86
2022/05/05 11:49:48;;;;;;;8.18;5.40;;;22.50;53.20;;;;;;5069898;28;20029;-85
2022/05/05 11:52:22;;;;;;;4.63;4.25;;;21.80;54.00;;;;;;5061723;28;20025;-85
2022/05/05 11:54:54;;;;;;;4.55;4.15;;;21.10;56.30;;;;;;5074323;28;20020;-85
2022/05/05 11:57:34;;;;;;;8.53;4.73;;;20.70;57.70;;;;;;5073918;28;20098;-85
2022/05/05 12:02:52;;;;;;;6.20;5.65;;;20.30;58.90;;;;;;5066891;28;20044;-85
2022/05/05 12:05:24;;;;;;;9.18;4.70;;;20.40;58.50;;;;;;5065828;28;20023;-85
2022/05/05 12:07:51;;;;;;;5.78;5.18;;;20.70;57.80;;;;;;5063159;28;20037;-85
2022/05/05 12:10:19;;;;;;;6.25;4.90;;;20.80;56.20;;;;;;5051843;28;20036;-85
2022/05/05 12:12:46;;;;;;;8.55;4.90;;;20.50;56.80;;;;;;5064349;28;20021;-85
2022/05/05 12:15:13;;;;;;;4.57;4.13;;;20.30;57.50;;;;;;5067306;28;20025;-85
2022/05/05 12:17:45;;;;;;;4.85;4.25;;;20.20;57.70;;;;;;5049870;28;20029;-85
2022/05/05 12:20:12;;;;;;;6.47;5.10;;;20.20;58.00;;;;;;5069550;28;20417;-85
2022/05/05 12:22:55;;;;;;;7.30;4.40;;;20.50;57.70;;;;;;5068249;28;20040;-85
2022/05/05 12:25:23;;;;;;;6.35;5.03;;;20.90;56.60;;;;;;5066321;28;20035;-86
2022/05/05 12:28:05;;;;;;;8.45;6.38;;;21.40;55.70;;;;;;5087087;28;20119;-85
2022/05/05 12:30:42;;;;;;;5.97;4.40;;;21.50;53.70;;;;;;5070444;28;20021;-84
2022/05/05 12:33:18;;;;;;;5.10;4.63;;;21.60;53.80;;;;;;5067603;28;20029;-85
2022/05/05 12:35:45;;;;;;;5.78;4.43;;;21.70;52.80;;;;;;5056373;28;20305;-84
2022/05/05 12:38:15;;;;;;;5.00;4.15;;;21.50;53.00;;;;;;5085400;28;20036;-84
2022/05/05 12:40:46;;;;;;;5.32;4.07;;;21.60;53.30;;;;;;5071995;28;20121;-85
2022/05/05 12:43:13;;;;;;;4.43;4.03;;;21.70;53.30;;;;;;5089602;28;20016;-85
2022/05/05 12:45:41;;;;;;;4.40;3.92;;;21.80;53.80;;;;;;5073257;28;20112;-85
2022/05/05 12:48:09;;;;;;;4.95;4.45;;;22.00;54.00;;;;;;5075039;28;20048;-85
2022/05/05 12:50:48;;;;;;;11.50;7.70;;;22.20;53.50;;;;;;5069711;28;20071;-84
2022/05/05 13:01:40;;;;;;;4.60;4.28;;;21.80;53.60;;;;;;5093762;28;20027;-85
2022/05/05 13:04:09;;;;;;;4.15;3.85;;;21.70;53.70;;;;;;5080506;28;20044;-86
2022/05/05 13:06:39;;;;;;;6.53;5.00;;;21.70;53.50;;;;;;5057051;28;20049;-85
2022/05/05 13:09:08;;;;;;;7.57;5.75;;;22.10;52.70;;;;;;5047602;28;20017;-87
2022/05/05 13:11:44;;;;;;;4.57;2.78;;;22.30;51.00;;;;;;5070230;28;20497;-86
2022/05/05 13:14:11;;;;;;;6.28;3.67;;;22.30;51.70;;;;;;5052605;28;20029;-85
2022/05/05 13:16:37;;;;;;;3.17;2.88;;;22.50;51.10;;;;;;5043185;28;20028;-87
2022/05/05 13:19:04;;;;;;;3.08;2.45;;;22.30;51.10;;;;;;5049245;28;20489;-86
2022/05/05 13:21:33;;;;;;;3.85;3.10;;;22.40;51.30;;;;;;5060291;28;20029;-86
2022/05/05 13:24:02;;;;;;;3.42;3.13;;;22.30;51.10;;;;;;5069369;28;20039;-84
2022/05/05 13:26:28;;;;;;;3.00;2.80;;;22.20;51.10;;;;;;5096114;28;20029;-85
2022/05/05 13:28:55;;;;;;;2.72;2.53;;;22.30;50.70;;;;;;5090132;28;20063;-85
2022/05/05 13:31:21;;;;;;;4.07;3.78;;;22.30;50.40;;;;;;5072819;28;20072;-85
2022/05/05 13:33:47;;;;;;;2.17;1.98;;;22.30;49.20;;;;;;5066505;28;20032;-85
2022/05/05 13:36:13;;;;;;;3.63;2.42;;;22.30;49.70;;;;;;5064100;28;20025;-86
2022/05/05 13:38:39;;;;;;;4.28;3.67;;;22.50;49.30;;;;;;5045312;28;20021;-85
2022/05/05 13:41:05;;;;;;;2.78;2.58;;;22.60;48.10;;;;;;5063260;28;20092;-85
2022/05/05 13:43:31;;;;;;;4.43;4.03;;;22.50;48.10;;;;;;5076368;28;20040;-86
2022/05/05 13:45:58;;;;;;;3.95;3.58;;;22.40;48.40;;;;;;5051755;28;20083;-86
2022/05/05 13:48:24;;;;;;;2.83;2.63;;;22.10;49.40;;;;;;5061012;28;20316;-86
2022/05/05 13:50:50;;;;;;;8.38;5.30;;;22.10;50.10;;;;;;5064397;28;20025;-84